sensor_id;sensor_type;location;lat;lon;timestamp;pressure;altitude;pressure_sealevel;temperature;humidity
44765;BME280;30484;52.382;5.260;2023-01-16T00:00:39;99664.69;;;7.26;100.00
44765;BME280;30484;52.382;5.260;2023-01-16T00:03:08;99663.41;;;7.01;100.00
44765;BME280;30484;52.382;5.260;2023-01-16T00:05:40;99654.59;;;7.33;100.00
44765;BME280;30484;52.382;5.260;2023-01-16T00:08:10;99637.94;;;6.97;100.00
44765;BME280;30484;52.382;5.260;2023-01-16T00:10:39;99637.53;;;7.37;100.00
44765;BME280;30484;52.382;5.260;2023-01-16T00:13:10;99640.50;;;7.63;100.00
44765;BME280;30484;52.382;5.260;2023-01-16T00:15:46;99628.34;;;7.11;100.00
44765;BME280;30484;52.382;5.260;2023-01-16T00:18:15;99631.63;;;7.16;100.00
44765;BME280;30484;52.382;5.260;2023-01-16T00:20:46;99625.94;;;7.38;100.00
44765;BME280;30484;52.382;5.260;2023-01-16T00:23:15;99611.19;;;7.32;100.00
44765;BME280;30484;52.382;5.260;2023-01-16T00:25:44;99600.56;;;7.32;100.00
44765;BME280;30484;52.382;5.260;2023-01-16T00:28:13;99601.28;;;7.36;100.00
44765;BME280;30484;52.382;5.260;2023-01-16T00:30:44;99585.69;;;7.30;100.00
44765;BME280;30484;52.382;5.260;2023-01-16T00:33:13;99596.63;;;7.39;100.00
44765;BME280;30484;52.382;5.260;2023-01-16T00:35:42;99583.63;;;7.35;100.00
44765;BME280;30484;52.382;5.260;2023-01-16T00:38:11;99581.03;;;6.85;100.00
44765;BME280;30484;52.382;5.260;2023-01-16T00:40:41;99567.34;;;7.25;100.00
44765;BME280;30484;52.382;5.260;2023-01-16T00:43:10;99569.91;;;7.42;100.00
44765;BME280;30484;52.382;5.260;2023-01-16T00:45:39;99559.00;;;7.47;100.00
44765;BME280;30484;52.382;5.260;2023-01-16T00:48:09;99559.13;;;7.14;100.00
44765;BME280;30484;52.382;5.260;2023-01-16T00:50:39;99551.97;;;7.00;100.00
44765;BME280;30484;52.382;5.260;2023-01-16T00:53:08;99559.13;;;6.82;100.00
44765;BME280;30484;52.382;5.260;2023-01-16T00:55:36;99549.09;;;7.19;100.00
44765;BME280;30484;52.382;5.260;2023-01-16T00:58:05;99540.19;;;7.04;100.00
44765;BME280;30484;52.382;5.260;2023-01-16T01:00:34;99535.03;;;7.17;100.00
44765;BME280;30484;52.382;5.260;2023-01-16T01:03:04;99535.34;;;6.96;100.00
44765;BME280;30484;52.382;5.260;2023-01-16T01:05:37;99536.16;;;7.29;100.00
44765;BME280;30484;52.382;5.260;2023-01-16T01:08:06;99536.09;;;6.82;100.00
44765;BME280;30484;52.382;5.260;2023-01-16T01:10:36;99534.91;;;6.72;100.00
44765;BME280;30484;52.382;5.260;2023-01-16T01:13:06;99521.94;;;7.14;100.00
44765;BME280;30484;52.382;5.260;2023-01-16T01:15:36;99526.53;;;6.96;100.00
44765;BME280;30484;52.382;5.260;2023-01-16T01:18:05;99522.25;;;6.93;100.00
44765;BME280;30484;52.382;5.260;2023-01-16T01:20:36;99511.97;;;7.33;100.00
44765;BME280;30484;52.382;5.260;2023-01-16T01:23:05;99500.63;;;6.99;100.00
44765;BME280;30484;52.382;5.260;2023-01-16T01:25:33;99503.13;;;7.18;100.00
44765;BME280;30484;52.382;5.260;2023-01-16T01:28:05;99497.97;;;7.46;100.00
44765;BME280;30484;52.382;5.260;2023-01-16T01:30:35;99495.16;;;6.86;100.00
44765;BME280;30484;52.382;5.260;2023-01-16T01:33:03;99488.06;;;7.03;100.00
44765;BME280;30484;52.382;5.260;2023-01-16T01:35:32;99483.97;;;7.28;100.00
44765;BME280;30484;52.382;5.260;2023-01-16T01:38:03;99475.84;;;7.15;100.00
44765;BME280;30484;52.382;5.260;2023-01-16T01:40:32;99477.81;;;6.49;100.00
44765;BME280;30484;52.382;5.260;2023-01-16T01:43:01;99479.34;;;6.53;100.00
44765;BME280;30484;52.382;5.260;2023-01-16T01:45:31;99462.94;;;7.08;100.00
44765;BME280;30484;52.382;5.260;2023-01-16T01:48:05;99452.22;;;7.10;100.00
44765;BME280;30484;52.382;5.260;2023-01-16T01:50:45;99447.63;;;6.98;100.00
44765;BME280;30484;52.382;5.260;2023-01-16T01:53:22;99436.63;;;7.04;100.00
44765;BME280;30484;52.382;5.260;2023-01-16T01:55:54;99432.38;;;7.01;100.00
44765;BME280;30484;52.382;5.260;2023-01-16T01:58:26;99446.13;;;6.78;100.00
44765;BME280;30484;52.382;5.260;2023-01-16T02:00:59;99445.34;;;6.60;100.00
44765;BME280;30484;52.382;5.260;2023-01-16T02:03:34;99436.59;;;6.89;100.00
44765;BME280;30484;52.382;5.260;2023-01-16T02:06:07;99435.47;;;6.94;100.00
44765;BME280;30484;52.382;5.260;2023-01-16T02:08:41;99440.47;;;6.68;100.00
44765;BME280;30484;52.382;5.260;2023-01-16T02:11:16;99444.22;;;6.80;100.00
44765;BME280;30484;52.382;5.260;2023-01-16T02:13:57;99427.97;;;6.86;100.00
44765;BME280;30484;52.382;5.260;2023-01-16T02:16:27;99428.47;;;6.77;100.00
44765;BME280;30484;52.382;5.260;2023-01-16T02:19:19;99416.41;;;6.87;100.00
44765;BME280;30484;52.382;5.260;2023-01-16T02:22:23;99408.34;;;6.88;100.00
44765;BME280;30484;52.382;5.260;2023-01-16T02:28:56;99392.66;;;6.84;100.00
44765;BME280;30484;52.382;5.260;2023-01-16T02:31:38;99390.50;;;6.60;100.00
44765;BME280;30484;52.382;5.260;2023-01-16T02:37:23;99387.13;;;6.72;100.00
44765;BME280;30484;52.382;5.260;2023-01-16T02:40:07;99370.69;;;6.03;100.00
44765;BME280;30484;52.382;5.260;2023-01-16T02:42:44;99372.13;;;6.57;100.00
44765;BME280;30484;52.382;5.260;2023-01-16T02:45:21;99372.00;;;6.74;100.00
44765;BME280;30484;52.382;5.260;2023-01-16T02:47:58;99361.09;;;6.33;100.00
44765;BME280;30484;52.382;5.260;2023-01-16T02:50:39;99355.44;;;6.39;100.00
44765;BME280;30484;52.382;5.260;2023-01-16T02:53:17;99367.69;;;6.10;100.00
44765;BME280;30484;52.382;5.260;2023-01-16T02:55:52;99358.09;;;6.39;100.00
44765;BME280;30484;52.382;5.260;2023-01-16T02:58:25;99363.81;;;6.31;100.00
44765;BME280;30484;52.382;5.260;2023-01-16T03:00:57;99360.72;;;6.55;100.00
44765;BME280;30484;52.382;5.260;2023-01-16T03:03:38;99360.25;;;6.00;100.00
44765;BME280;30484;52.382;5.260;2023-01-16T03:06:33;99350.94;;;6.09;100.00
44765;BME280;30484;52.382;5.260;2023-01-16T03:09:29;99346.06;;;6.17;100.00
44765;BME280;30484;52.382;5.260;2023-01-16T03:12:21;99339.63;;;6.21;100.00
44765;BME280;30484;52.382;5.260;2023-01-16T03:15:03;99333.53;;;6.51;100.00
44765;BME280;30484;52.382;5.260;2023-01-16T03:17:45;99327.13;;;6.24;100.00
44765;BME280;30484;52.382;5.260;2023-01-16T03:20:30;99321.91;;;6.38;100.00
44765;BME280;30484;52.382;5.260;2023-01-16T03:23:09;99317.66;;;6.50;100.00
44765;BME280;30484;52.382;5.260;2023-01-16T03:25:46;99305.38;;;6.49;100.00
44765;BME280;30484;52.382;5.260;2023-01-16T03:28:26;99293.75;;;6.35;100.00
44765;BME280;30484;52.382;5.260;2023-01-16T03:31:03;99288.72;;;6.31;100.00
44765;BME280;30484;52.382;5.260;2023-01-16T03:33:40;99275.03;;;6.38;100.00
44765;BME280;30484;52.382;5.260;2023-01-16T03:36:20;99267.81;;;6.10;100.00
44765;BME280;30484;52.382;5.260;2023-01-16T03:38:52;99260.28;;;6.02;100.00
44765;BME280;30484;52.382;5.260;2023-01-16T03:41:25;99265.63;;;6.17;100.00
44765;BME280;30484;52.382;5.260;2023-01-16T03:43:59;99250.78;;;5.98;100.00
44765;BME280;30484;52.382;5.260;2023-01-16T03:46:32;99241.16;;;5.97;100.00
44765;BME280;30484;52.382;5.260;2023-01-16T03:49:07;99235.56;;;6.02;100.00
44765;BME280;30484;52.382;5.260;2023-01-16T03:51:44;99233.00;;;5.68;100.00
44765;BME280;30484;52.382;5.260;2023-01-16T03:54:28;99238.72;;;6.09;100.00
44765;BME280;30484;52.382;5.260;2023-01-16T03:57:07;99227.13;;;5.63;100.00
44765;BME280;30484;52.382;5.260;2023-01-16T03:59:39;99236.75;;;5.80;100.00
44765;BME280;30484;52.382;5.260;2023-01-16T04:02:13;99237.97;;;5.75;100.00
44765;BME280;30484;52.382;5.260;2023-01-16T04:04:49;99231.38;;;5.82;100.00
44765;BME280;30484;52.382;5.260;2023-01-16T04:07:26;99214.38;;;5.54;100.00
44765;BME280;30484;52.382;5.260;2023-01-16T04:10:02;99206.25;;;5.41;100.00
44765;BME280;30484;52.382;5.260;2023-01-16T04:12:35;99199.34;;;5.55;100.00
44765;BME280;30484;52.382;5.260;2023-01-16T04:15:08;99189.59;;;5.55;100.00
44765;BME280;30484;52.382;5.260;2023-01-16T04:17:58;99187.44;;;5.30;100.00
44765;BME280;30484;52.382;5.260;2023-01-16T04:20:47;99181.91;;;5.50;100.00
44765;BME280;30484;52.382;5.260;2023-01-16T04:23:38;99161.75;;;5.94;100.00
44765;BME280;30484;52.382;5.260;2023-01-16T04:26:28;99150.69;;;6.18;100.00
44765;BME280;30484;52.382;5.260;2023-01-16T04:29:16;99149.38;;;5.95;100.00
44765;BME280;30484;52.382;5.260;2023-01-16T04:32:05;99152.13;;;5.93;100.00
44765;BME280;30484;52.382;5.260;2023-01-16T04:34:53;99142.91;;;5.68;100.00
44765;BME280;30484;52.382;5.260;2023-01-16T04:37:26;99140.16;;;5.86;100.00
44765;BME280;30484;52.382;5.260;2023-01-16T04:39:57;99131.28;;;6.17;100.00
44765;BME280;30484;52.382;5.260;2023-01-16T04:42:40;99122.03;;;5.78;100.00
44765;BME280;30484;52.382;5.260;2023-01-16T04:45:28;99114.25;;;5.45;100.00
44765;BME280;30484;52.382;5.260;2023-01-16T04:48:17;99102.41;;;5.66;100.00
44765;BME280;30484;52.382;5.260;2023-01-16T04:51:06;99098.88;;;5.82;100.00
44765;BME280;30484;52.382;5.260;2023-01-16T04:53:56;99067.16;;;6.11;100.00
44765;BME280;30484;52.382;5.260;2023-01-16T04:56:46;99049.53;;;5.65;100.00
44765;BME280;30484;52.382;5.260;2023-01-16T04:59:37;99050.06;;;5.86;100.00
44765;BME280;30484;52.382;5.260;2023-01-16T05:02:25;99041.59;;;6.10;100.00
44765;BME280;30484;52.382;5.260;2023-01-16T05:04:54;99040.38;;;5.70;100.00
44765;BME280;30484;52.382;5.260;2023-01-16T05:07:23;99036.91;;;5.84;100.00
44765;BME280;30484;52.382;5.260;2023-01-16T05:10:13;99022.94;;;6.11;100.00
44765;BME280;30484;52.382;5.260;2023-01-16T05:13:04;99015.91;;;5.96;100.00
44765;BME280;30484;52.382;5.260;2023-01-16T05:15:52;99002.91;;;6.07;100.00
44765;BME280;30484;52.382;5.260;2023-01-16T05:18:41;98990.00;;;6.01;100.00
44765;BME280;30484;52.382;5.260;2023-01-16T05:21:29;98987.69;;;5.95;100.00
44765;BME280;30484;52.382;5.260;2023-01-16T05:24:18;98970.09;;;5.94;100.00
44765;BME280;30484;52.382;5.260;2023-01-16T05:27:16;98972.81;;;5.78;100.00
44765;BME280;30484;52.382;5.260;2023-01-16T05:29:46;98965.06;;;5.89;100.00
44765;BME280;30484;52.382;5.260;2023-01-16T05:32:22;98947.06;;;5.80;100.00
44765;BME280;30484;52.382;5.260;2023-01-16T05:34:52;98939.06;;;6.10;100.00
44765;BME280;30484;52.382;5.260;2023-01-16T05:37:21;98936.66;;;5.91;100.00
44765;BME280;30484;52.382;5.260;2023-01-16T05:39:50;98931.09;;;5.96;100.00
44765;BME280;30484;52.382;5.260;2023-01-16T05:42:19;98923.28;;;6.09;100.00
44765;BME280;30484;52.382;5.260;2023-01-16T05:44:52;98922.88;;;5.86;100.00
44765;BME280;30484;52.382;5.260;2023-01-16T05:47:21;98913.31;;;5.69;100.00
44765;BME280;30484;52.382;5.260;2023-01-16T05:49:50;98910.16;;;5.62;100.00
44765;BME280;30484;52.382;5.260;2023-01-16T05:52:18;98897.59;;;5.66;100.00
44765;BME280;30484;52.382;5.260;2023-01-16T05:54:47;98883.03;;;5.59;100.00
44765;BME280;30484;52.382;5.260;2023-01-16T05:57:16;98873.75;;;5.95;100.00
44765;BME280;30484;52.382;5.260;2023-01-16T05:59:48;98870.34;;;5.78;100.00
44765;BME280;30484;52.382;5.260;2023-01-16T06:02:20;98859.19;;;6.02;100.00
44765;BME280;30484;52.382;5.260;2023-01-16T06:04:49;98849.91;;;5.66;100.00
44765;BME280;30484;52.382;5.260;2023-01-16T06:07:18;98838.63;;;5.91;100.00
44765;BME280;30484;52.382;5.260;2023-01-16T06:09:47;98835.16;;;5.62;100.00
44765;BME280;30484;52.382;5.260;2023-01-16T06:12:17;98820.56;;;5.98;100.00
44765;BME280;30484;52.382;5.260;2023-01-16T06:14:46;98805.97;;;6.05;100.00
44765;BME280;30484;52.382;5.260;2023-01-16T06:17:18;98804.75;;;5.82;100.00
44765;BME280;30484;52.382;5.260;2023-01-16T06:19:47;98799.47;;;5.82;100.00
44765;BME280;30484;52.382;5.260;2023-01-16T06:22:16;98799.00;;;6.17;100.00
44765;BME280;30484;52.382;5.260;2023-01-16T06:24:46;98794.59;;;5.88;100.00
44765;BME280;30484;52.382;5.260;2023-01-16T06:27:15;98790.81;;;5.93;100.00
44765;BME280;30484;52.382;5.260;2023-01-16T06:29:44;98780.81;;;6.25;100.00
44765;BME280;30484;52.382;5.260;2023-01-16T06:32:13;98778.56;;;6.19;100.00
44765;BME280;30484;52.382;5.260;2023-01-16T06:34:45;98769.75;;;6.18;100.00
44765;BME280;30484;52.382;5.260;2023-01-16T06:37:13;98770.81;;;6.16;100.00
44765;BME280;30484;52.382;5.260;2023-01-16T06:39:42;98753.81;;;5.91;100.00
44765;BME280;30484;52.382;5.260;2023-01-16T06:42:10;98752.28;;;6.16;100.00
44765;BME280;30484;52.382;5.260;2023-01-16T06:44:39;98748.25;;;5.81;100.00
44765;BME280;30484;52.382;5.260;2023-01-16T06:47:09;98756.66;;;5.88;100.00
44765;BME280;30484;52.382;5.260;2023-01-16T06:49:38;98739.94;;;5.87;100.00
44765;BME280;30484;52.382;5.260;2023-01-16T06:52:09;98742.75;;;5.99;100.00
44765;BME280;30484;52.382;5.260;2023-01-16T06:54:39;98743.00;;;5.94;100.00
44765;BME280;30484;52.382;5.260;2023-01-16T06:57:12;98740.22;;;6.37;100.00
44765;BME280;30484;52.382;5.260;2023-01-16T06:59:48;98733.22;;;6.36;100.00
44765;BME280;30484;52.382;5.260;2023-01-16T07:02:21;98729.63;;;5.97;100.00
44765;BME280;30484;52.382;5.260;2023-01-16T07:04:52;98727.63;;;5.86;100.00
44765;BME280;30484;52.382;5.260;2023-01-16T07:07:24;98736.81;;;5.81;100.00
44765;BME280;30484;52.382;5.260;2023-01-16T07:09:55;98726.03;;;6.11;100.00
44765;BME280;30484;52.382;5.260;2023-01-16T07:12:28;98718.25;;;6.35;100.00
44765;BME280;30484;52.382;5.260;2023-01-16T07:14:59;98702.56;;;6.32;100.00
44765;BME280;30484;52.382;5.260;2023-01-16T07:17:49;98696.59;;;6.16;100.00
44765;BME280;30484;52.382;5.260;2023-01-16T07:20:37;98693.59;;;6.08;100.00
44765;BME280;30484;52.382;5.260;2023-01-16T07:23:39;98687.16;;;6.12;100.00
44765;BME280;30484;52.382;5.260;2023-01-16T07:26:15;98680.06;;;6.25;100.00
44765;BME280;30484;52.382;5.260;2023-01-16T07:28:48;98678.63;;;6.07;100.00
44765;BME280;30484;52.382;5.260;2023-01-16T07:31:20;98672.22;;;6.36;100.00
44765;BME280;30484;52.382;5.260;2023-01-16T07:33:50;98673.31;;;6.60;100.00
44765;BME280;30484;52.382;5.260;2023-01-16T07:36:19;98664.03;;;6.14;100.00
44765;BME280;30484;52.382;5.260;2023-01-16T07:38:53;98653.66;;;6.36;100.00
44765;BME280;30484;52.382;5.260;2023-01-16T07:41:24;98639.56;;;6.49;100.00
44765;BME280;30484;52.382;5.260;2023-01-16T07:43:54;98637.63;;;6.25;100.00
44765;BME280;30484;52.382;5.260;2023-01-16T07:46:23;98633.63;;;6.45;100.00
44765;BME280;30484;52.382;5.260;2023-01-16T07:48:52;98637.38;;;6.02;100.00
44765;BME280;30484;52.382;5.260;2023-01-16T07:51:23;98617.88;;;6.03;100.00
44765;BME280;30484;52.382;5.260;2023-01-16T07:53:58;98611.44;;;6.08;100.00
44765;BME280;30484;52.382;5.260;2023-01-16T07:56:30;98604.78;;;6.28;100.00
44765;BME280;30484;52.382;5.260;2023-01-16T07:58:59;98602.19;;;6.00;100.00
44765;BME280;30484;52.382;5.260;2023-01-16T08:01:28;98589.59;;;6.17;100.00
44765;BME280;30484;52.382;5.260;2023-01-16T08:03:56;98587.69;;;6.19;100.00
44765;BME280;30484;52.382;5.260;2023-01-16T08:06:26;98580.81;;;6.29;100.00
44765;BME280;30484;52.382;5.260;2023-01-16T08:08:56;98578.19;;;5.89;100.00
44765;BME280;30484;52.382;5.260;2023-01-16T08:11:25;98563.06;;;6.30;100.00
44765;BME280;30484;52.382;5.260;2023-01-16T08:14:07;98572.00;;;6.16;100.00
44765;BME280;30484;52.382;5.260;2023-01-16T08:16:35;98557.03;;;6.15;100.00
44765;BME280;30484;52.382;5.260;2023-01-16T08:19:05;98552.75;;;5.86;100.00
44765;BME280;30484;52.382;5.260;2023-01-16T08:21:34;98540.81;;;6.19;100.00
44765;BME280;30484;52.382;5.260;2023-01-16T08:24:05;98530.75;;;6.25;100.00
44765;BME280;30484;52.382;5.260;2023-01-16T08:26:36;98528.31;;;6.34;100.00
44765;BME280;30484;52.382;5.260;2023-01-16T08:29:05;98520.34;;;5.96;100.00
44765;BME280;30484;52.382;5.260;2023-01-16T08:31:34;98521.63;;;6.16;100.00
44765;BME280;30484;52.382;5.260;2023-01-16T08:34:03;98517.56;;;5.72;100.00
44765;BME280;30484;52.382;5.260;2023-01-16T08:36:34;98518.16;;;5.62;100.00
44765;BME280;30484;52.382;5.260;2023-01-16T08:39:08;98495.09;;;5.64;100.00
44765;BME280;30484;52.382;5.260;2023-01-16T08:41:38;98477.50;;;5.63;100.00
44765;BME280;30484;52.382;5.260;2023-01-16T08:44:24;98471.41;;;6.01;100.00
44765;BME280;30484;52.382;5.260;2023-01-16T08:47:23;98458.75;;;6.18;100.00
44765;BME280;30484;52.382;5.260;2023-01-16T08:50:12;98454.84;;;6.11;100.00
44765;BME280;30484;52.382;5.260;2023-01-16T08:52:58;98431.53;;;6.03;100.00
44765;BME280;30484;52.382;5.260;2023-01-16T08:55:29;98427.03;;;6.16;100.00
44765;BME280;30484;52.382;5.260;2023-01-16T08:57:58;98423.72;;;6.38;100.00
44765;BME280;30484;52.382;5.260;2023-01-16T09:00:28;98417.34;;;6.65;100.00
44765;BME280;30484;52.382;5.260;2023-01-16T09:02:58;98411.84;;;6.31;100.00
44765;BME280;30484;52.382;5.260;2023-01-16T09:05:28;98403.88;;;6.31;100.00
44765;BME280;30484;52.382;5.260;2023-01-16T09:07:57;98393.63;;;6.27;100.00
44765;BME280;30484;52.382;5.260;2023-01-16T09:10:28;98391.44;;;5.95;100.00
44765;BME280;30484;52.382;5.260;2023-01-16T09:12:57;98390.47;;;6.21;100.00
44765;BME280;30484;52.382;5.260;2023-01-16T09:15:43;98394.19;;;6.19;100.00
44765;BME280;30484;52.382;5.260;2023-01-16T09:18:12;98380.00;;;6.68;100.00
44765;BME280;30484;52.382;5.260;2023-01-16T09:20:41;98371.38;;;6.16;100.00
44765;BME280;30484;52.382;5.260;2023-01-16T09:23:12;98359.19;;;6.14;100.00
44765;BME280;30484;52.382;5.260;2023-01-16T09:25:43;98366.75;;;6.31;100.00
44765;BME280;30484;52.382;5.260;2023-01-16T09:28:11;98353.69;;;5.91;100.00
44765;BME280;30484;52.382;5.260;2023-01-16T09:30:40;98359.41;;;6.11;100.00
44765;BME280;30484;52.382;5.260;2023-01-16T09:33:09;98353.31;;;5.97;100.00
44765;BME280;30484;52.382;5.260;2023-01-16T09:35:38;98342.31;;;6.87;100.00
44765;BME280;30484;52.382;5.260;2023-01-16T09:38:06;98346.69;;;6.16;100.00
44765;BME280;30484;52.382;5.260;2023-01-16T09:40:36;98321.25;;;6.13;100.00
44765;BME280;30484;52.382;5.260;2023-01-16T09:43:20;98320.97;;;6.29;100.00
44765;BME280;30484;52.382;5.260;2023-01-16T09:46:09;98325.75;;;6.24;100.00
44765;BME280;30484;52.382;5.260;2023-01-16T09:48:48;98311.25;;;6.41;100.00
44765;BME280;30484;52.382;5.260;2023-01-16T09:51:22;98299.13;;;6.50;100.00
44765;BME280;30484;52.382;5.260;2023-01-16T09:53:56;98297.72;;;6.09;100.00
44765;BME280;30484;52.382;5.260;2023-01-16T09:56:48;98292.25;;;6.47;100.00
44765;BME280;30484;52.382;5.260;2023-01-16T09:59:39;98285.66;;;6.88;100.00
44765;BME280;30484;52.382;5.260;2023-01-16T10:02:20;98286.56;;;6.41;100.00
44765;BME280;30484;52.382;5.260;2023-01-16T10:04:51;98282.84;;;6.19;100.00
44765;BME280;30484;52.382;5.260;2023-01-16T10:07:53;98278.94;;;6.36;100.00
44765;BME280;30484;52.382;5.260;2023-01-16T10:10:44;98277.25;;;6.70;100.00
44765;BME280;30484;52.382;5.260;2023-01-16T10:13:40;98264.13;;;6.69;100.00
44765;BME280;30484;52.382;5.260;2023-01-16T10:16:24;98250.66;;;6.95;100.00
44765;BME280;30484;52.382;5.260;2023-01-16T10:19:02;98256.19;;;6.45;100.00
44765;BME280;30484;52.382;5.260;2023-01-16T10:21:56;98246.34;;;6.58;100.00
44765;BME280;30484;52.382;5.260;2023-01-16T10:24:43;98242.69;;;6.83;100.00
44765;BME280;30484;52.382;5.260;2023-01-16T10:27:21;98239.13;;;6.60;100.00
44765;BME280;30484;52.382;5.260;2023-01-16T10:30:03;98233.84;;;6.60;100.00
44765;BME280;30484;52.382;5.260;2023-01-16T10:32:38;98236.88;;;6.43;100.00
44765;BME280;30484;52.382;5.260;2023-01-16T10:35:16;98233.88;;;6.71;100.00
44765;BME280;30484;52.382;5.260;2023-01-16T10:37:46;98216.91;;;6.38;100.00
44765;BME280;30484;52.382;5.260;2023-01-16T10:40:21;98210.75;;;7.07;100.00
44765;BME280;30484;52.382;5.260;2023-01-16T10:43:00;98208.66;;;6.66;100.00
44765;BME280;30484;52.382;5.260;2023-01-16T10:45:46;98200.94;;;6.63;100.00
44765;BME280;30484;52.382;5.260;2023-01-16T10:48:35;98202.91;;;6.95;100.00
44765;BME280;30484;52.382;5.260;2023-01-16T10:51:27;98191.19;;;6.86;100.00
44765;BME280;30484;52.382;5.260;2023-01-16T10:53:56;98194.31;;;6.68;100.00
44765;BME280;30484;52.382;5.260;2023-01-16T10:56:27;98175.25;;;6.63;100.00
44765;BME280;30484;52.382;5.260;2023-01-16T10:58:56;98183.00;;;7.00;100.00
44765;BME280;30484;52.382;5.260;2023-01-16T11:01:25;98178.75;;;6.75;100.00
44765;BME280;30484;52.382;5.260;2023-01-16T11:03:59;98168.75;;;6.90;100.00
44765;BME280;30484;52.382;5.260;2023-01-16T11:06:29;98171.28;;;6.80;100.00
44765;BME280;30484;52.382;5.260;2023-01-16T11:09:02;98163.31;;;6.69;100.00
44765;BME280;30484;52.382;5.260;2023-01-16T11:11:36;98161.94;;;6.52;100.00
44765;BME280;30484;52.382;5.260;2023-01-16T11:14:25;98162.19;;;6.49;100.00
44765;BME280;30484;52.382;5.260;2023-01-16T11:17:25;98144.63;;;6.70;100.00
44765;BME280;30484;52.382;5.260;2023-01-16T11:20:19;98152.19;;;6.52;100.00
44765;BME280;30484;52.382;5.260;2023-01-16T11:22:55;98129.66;;;6.58;100.00
44765;BME280;30484;52.382;5.260;2023-01-16T11:25:27;98129.91;;;6.78;100.00
44765;BME280;30484;52.382;5.260;2023-01-16T11:27:58;98126.28;;;6.67;100.00
44765;BME280;30484;52.382;5.260;2023-01-16T11:30:33;98122.06;;;6.99;100.00
44765;BME280;30484;52.382;5.260;2023-01-16T11:33:05;98118.81;;;6.72;100.00
44765;BME280;30484;52.382;5.260;2023-01-16T11:35:50;98114.47;;;6.71;100.00
44765;BME280;30484;52.382;5.260;2023-01-16T11:38:24;98104.31;;;6.65;100.00
44765;BME280;30484;52.382;5.260;2023-01-16T11:40:58;98096.50;;;6.64;100.00
44765;BME280;30484;52.382;5.260;2023-01-16T11:43:28;98095.03;;;6.82;100.00
44765;BME280;30484;52.382;5.260;2023-01-16T11:46:37;98094.22;;;6.82;100.00
44765;BME280;30484;52.382;5.260;2023-01-16T11:49:16;98082.00;;;7.13;100.00
44765;BME280;30484;52.382;5.260;2023-01-16T11:51:52;98083.59;;;6.93;100.00
44765;BME280;30484;52.382;5.260;2023-01-16T11:54:27;98073.44;;;6.98;100.00
44765;BME280;30484;52.382;5.260;2023-01-16T12:00:44;98070.91;;;6.74;100.00
44765;BME280;30484;52.382;5.260;2023-01-16T12:03:42;98057.31;;;6.56;100.00
44765;BME280;30484;52.382;5.260;2023-01-16T12:09:38;98049.81;;;6.61;100.00
44765;BME280;30484;52.382;5.260;2023-01-16T12:12:24;98050.72;;;7.17;100.00
44765;BME280;30484;52.382;5.260;2023-01-16T12:15:21;98041.00;;;7.06;100.00
44765;BME280;30484;52.382;5.260;2023-01-16T12:18:09;98033.19;;;6.82;100.00
44765;BME280;30484;52.382;5.260;2023-01-16T12:20:50;98025.72;;;6.87;100.00
44765;BME280;30484;52.382;5.260;2023-01-16T12:23:36;98026.66;;;6.86;100.00
44765;BME280;30484;52.382;5.260;2023-01-16T12:26:28;98023.09;;;6.64;100.00
44765;BME280;30484;52.382;5.260;2023-01-16T12:29:23;98024.50;;;6.80;100.00
44765;BME280;30484;52.382;5.260;2023-01-16T12:32:21;98015.31;;;6.84;100.00
44765;BME280;30484;52.382;5.260;2023-01-16T12:35:33;98009.88;;;6.85;100.00
44765;BME280;30484;52.382;5.260;2023-01-16T12:38:12;98001.97;;;7.18;100.00
44765;BME280;30484;52.382;5.260;2023-01-16T12:41:08;97995.66;;;7.30;100.00
44765;BME280;30484;52.382;5.260;2023-01-16T12:44:27;97991.81;;;7.23;100.00
44765;BME280;30484;52.382;5.260;2023-01-16T12:47:33;97993.13;;;6.96;100.00
44765;BME280;30484;52.382;5.260;2023-01-16T12:50:32;97988.44;;;7.21;100.00
44765;BME280;30484;52.382;5.260;2023-01-16T12:56:30;97972.06;;;7.16;100.00
44765;BME280;30484;52.382;5.260;2023-01-16T12:59:13;97976.56;;;7.36;100.00
44765;BME280;30484;52.382;5.260;2023-01-16T13:01:47;97970.19;;;6.95;100.00
44765;BME280;30484;52.382;5.260;2023-01-16T13:04:23;97975.56;;;7.16;100.00
44765;BME280;30484;52.382;5.260;2023-01-16T13:06:57;97969.28;;;7.17;100.00
44765;BME280;30484;52.382;5.260;2023-01-16T13:09:32;97966.41;;;7.63;100.00
44765;BME280;30484;52.382;5.260;2023-01-16T13:12:10;97961.53;;;7.47;100.00
44765;BME280;30484;52.382;5.260;2023-01-16T13:15:05;97960.75;;;7.02;100.00
44765;BME280;30484;52.382;5.260;2023-01-16T13:17:44;97956.84;;;7.18;100.00
44765;BME280;30484;52.382;5.260;2023-01-16T13:20:17;97945.41;;;7.38;100.00
44765;BME280;30484;52.382;5.260;2023-01-16T13:22:51;97951.78;;;7.15;100.00
44765;BME280;30484;52.382;5.260;2023-01-16T13:25:26;97945.84;;;7.22;100.00
44765;BME280;30484;52.382;5.260;2023-01-16T13:28:01;97927.41;;;7.42;100.00
44765;BME280;30484;52.382;5.260;2023-01-16T13:30:32;97916.69;;;7.32;100.00
44765;BME280;30484;52.382;5.260;2023-01-16T13:33:04;97913.50;;;7.81;100.00
44765;BME280;30484;52.382;5.260;2023-01-16T13:35:43;97909.91;;;7.18;100.00
44765;BME280;30484;52.382;5.260;2023-01-16T13:38:38;97902.41;;;7.66;100.00
44765;BME280;30484;52.382;5.260;2023-01-16T13:41:16;97899.19;;;7.72;100.00
44765;BME280;30484;52.382;5.260;2023-01-16T13:43:55;97899.53;;;7.57;100.00
44765;BME280;30484;52.382;5.260;2023-01-16T13:46:44;97902.53;;;7.64;100.00
44765;BME280;30484;52.382;5.260;2023-01-16T13:49:21;97902.78;;;7.61;100.00
44765;BME280;30484;52.382;5.260;2023-01-16T13:51:52;97891.09;;;8.04;100.00
44765;BME280;30484;52.382;5.260;2023-01-16T13:54:24;97894.16;;;7.69;100.00
44765;BME280;30484;52.382;5.260;2023-01-16T13:56:57;97888.91;;;7.57;100.00
44765;BME280;30484;52.382;5.260;2023-01-16T13:59:41;97890.19;;;7.84;100.00
44765;BME280;30484;52.382;5.260;2023-01-16T14:02:41;97887.50;;;7.53;100.00
44765;BME280;30484;52.382;5.260;2023-01-16T14:08:47;97874.78;;;8.19;100.00
44765;BME280;30484;52.382;5.260;2023-01-16T14:11:39;97881.75;;;8.10;100.00